Time;durP1;ratioP1;P1;durP2;ratioP2;P2;SDS_P1;SDS_P2;PMS_P1;PMS_P2;Temp;Humidity;BMP_temperature;BMP_pressure;BME280_temperature;BME280_humidity;BME280_pressure;Samples;Min_cycle;Max_cycle;Signal;HPM_P1;HPM_P2
2021/10/22 00:01:14;;;;;;;17.17;2.53;;;8.70;99.90;;;;;;5040998;28;20040;-60
2021/10/22 00:03:39;;;;;;;11.10;2.33;;;8.70;99.90;;;;;;5041157;28;20239;-60
2021/10/22 00:06:05;;;;;;;11.63;1.80;;;8.70;99.90;;;;;;5040908;28;20025;-60
2021/10/22 00:08:31;;;;;;;14.48;1.75;;;8.70;99.90;;;;;;5041115;28;20373;-60
2021/10/22 00:10:57;;;;;;;18.05;2.70;;;8.70;99.90;;;;;;5039838;28;20204;-60
2021/10/22 00:13:23;;;;;;;11.00;1.60;;;8.70;99.90;;;;;;5022260;28;20024;-60
2021/10/22 00:15:49;;;;;;;9.13;1.42;;;8.70;99.90;;;;;;5038255;28;20028;-60
2021/10/22 00:18:19;;;;;;;10.52;1.80;;;8.70;99.90;;;;;;5038943;28;20029;-60
2021/10/22 00:20:45;;;;;;;10.15;1.85;;;8.70;99.90;;;;;;5040860;28;20030;-60
2021/10/22 00:23:11;;;;;;;7.28;1.30;;;8.70;99.90;;;;;;5039634;28;20055;-60
2021/10/22 00:25:37;;;;;;;16.45;1.80;;;8.70;99.90;;;;;;5039115;28;20063;-59
2021/10/22 00:28:03;;;;;;;9.15;1.70;;;8.70;99.90;;;;;;5037873;28;20049;-60
2021/10/22 00:30:29;;;;;;;16.77;1.70;;;8.80;99.90;;;;;;5041354;28;20025;-60
2021/10/22 00:32:55;;;;;;;13.57;1.90;;;8.80;99.90;;;;;;5034068;28;20037;-60
2021/10/22 00:35:21;;;;;;;12.18;1.85;;;8.90;99.90;;;;;;5039515;28;20251;-60
2021/10/22 00:37:46;;;;;;;10.73;2.10;;;8.90;99.90;;;;;;5030308;28;20132;-60
2021/10/22 00:40:13;;;;;;;9.43;1.30;;;8.90;99.90;;;;;;5041096;28;20245;-60
2021/10/22 00:42:40;;;;;;;11.70;2.15;;;8.90;99.90;;;;;;5022568;28;20260;-60
2021/10/22 00:45:08;;;;;;;13.50;2.05;;;8.90;99.90;;;;;;5041151;28;20041;-60
2021/10/22 00:47:34;;;;;;;15.05;2.75;;;8.90;99.90;;;;;;5022437;28;20028;-60
2021/10/22 00:50:00;;;;;;;8.30;1.77;;;9.00;99.90;;;;;;5040371;28;20087;-60
2021/10/22 00:52:28;;;;;;;10.68;1.55;;;9.00;99.90;;;;;;5041702;28;20053;-60
2021/10/22 00:54:57;;;;;;;9.02;2.30;;;9.00;99.90;;;;;;5043890;28;20500;-60
2021/10/22 00:57:23;;;;;;;14.68;2.05;;;9.10;99.90;;;;;;5044850;28;20037;-60
2021/10/22 00:59:49;;;;;;;17.25;2.13;;;9.10;99.90;;;;;;5044248;28;20075;-60
2021/10/22 01:02:15;;;;;;;11.65;2.55;;;9.10;99.90;;;;;;5044229;28;20108;-60
2021/10/22 01:04:41;;;;;;;9.23;1.80;;;9.10;99.90;;;;;;5044281;28;20081;-60
2021/10/22 01:07:08;;;;;;;13.88;1.70;;;9.20;99.90;;;;;;5044803;28;20313;-60
2021/10/22 01:09:34;;;;;;;14.60;2.65;;;9.20;99.90;;;;;;5044299;28;20037;-60
2021/10/22 01:12:01;;;;;;;11.27;1.65;;;9.30;99.90;;;;;;5044135;28;20373;-60
2021/10/22 01:14:28;;;;;;;9.23;1.80;;;9.10;99.90;;;;;;5042985;28;20029;-60
2021/10/22 01:16:54;;;;;;;9.77;2.20;;;9.10;99.90;;;;;;5026005;28;20021;-60
2021/10/22 01:19:20;;;;;;;9.60;1.50;;;9.00;99.90;;;;;;5044006;28;20079;-60
2021/10/22 01:21:47;;;;;;;9.13;1.33;;;8.90;99.90;;;;;;5043602;28;20071;-61
2021/10/22 01:24:17;;;;;;;8.77;1.70;;;8.70;99.90;;;;;;5042294;28;20327;-60
2021/10/22 01:26:43;;;;;;;6.53;1.27;;;8.50;99.90;;;;;;5043044;28;20220;-60
2021/10/22 01:29:09;;;;;;;10.57;1.27;;;8.30;99.90;;;;;;5043088;28;20049;-60
2021/10/22 01:31:37;;;;;;;10.40;1.65;;;8.30;99.90;;;;;;5044621;28;20045;-60
2021/10/22 01:34:03;;;;;;;8.48;0.82;;;8.20;99.90;;;;;;5023892;28;20247;-60
2021/10/22 01:36:29;;;;;;;6.13;0.82;;;8.20;99.90;;;;;;5044278;28;20090;-60
2021/10/22 01:38:55;;;;;;;7.05;1.20;;;8.10;99.90;;;;;;5042221;28;20331;-60
2021/10/22 01:41:22;;;;;;;12.85;2.22;;;8.10;99.90;;;;;;5039178;28;20052;-60
2021/10/22 01:43:53;;;;;;;10.80;1.92;;;8.00;99.90;;;;;;5043557;28;20342;-60
2021/10/22 01:46:19;;;;;;;11.13;1.48;;;8.00;99.90;;;;;;5036949;28;20033;-60
2021/10/22 01:48:46;;;;;;;7.82;1.58;;;8.00;99.90;;;;;;5038625;28;20386;-60
2021/10/22 01:51:13;;;;;;;8.52;1.40;;;8.00;99.90;;;;;;5033790;28;20039;-60
2021/10/22 01:53:39;;;;;;;15.85;2.15;;;8.00;99.90;;;;;;5043527;28;20053;-60
2021/10/22 01:56:05;;;;;;;8.43;1.50;;;8.00;99.90;;;;;;5042944;28;20078;-60
2021/10/22 01:58:30;;;;;;;13.82;1.95;;;8.10;99.90;;;;;;5044155;28;20044;-60
2021/10/22 02:00:56;;;;;;;9.52;1.77;;;8.10;99.90;;;;;;5042445;28;20021;-60
2021/10/22 02:03:22;;;;;;;9.93;1.60;;;8.10;99.90;;;;;;5042615;28;20245;-60
2021/10/22 02:05:48;;;;;;;13.50;2.00;;;8.10;99.90;;;;;;5041908;28;20335;-60
2021/10/22 02:08:14;;;;;;;12.13;1.40;;;8.20;99.90;;;;;;5043337;28;20055;-60
2021/10/22 02:10:41;;;;;;;11.57;2.08;;;8.20;99.90;;;;;;5043600;28;20454;-60
2021/10/22 02:13:07;;;;;;;10.18;1.63;;;8.20;99.90;;;;;;5043654;28;20048;-60
2021/10/22 02:15:32;;;;;;;9.55;1.80;;;8.20;99.90;;;;;;5041950;28;20048;-60
2021/10/22 02:17:58;;;;;;;2.83;0.88;;;8.20;99.90;;;;;;5042565;28;20345;-60
2021/10/22 02:20:24;;;;;;;13.75;2.22;;;8.20;99.90;;;;;;5043447;28;20028;-60
2021/10/22 02:22:50;;;;;;;13.32;1.83;;;8.10;99.90;;;;;;5041941;28;20034;-60
2021/10/22 02:25:16;;;;;;;11.10;2.53;;;8.10;99.90;;;;;;5043071;28;20040;-60
2021/10/22 02:27:42;;;;;;;19.25;2.38;;;8.10;99.90;;;;;;5039968;28;20029;-60
2021/10/22 02:30:08;;;;;;;17.40;1.98;;;8.10;99.90;;;;;;5041480;28;20578;-60
2021/10/22 02:32:34;;;;;;;17.17;2.35;;;8.10;99.90;;;;;;5042331;28;20028;-60
2021/10/22 02:35:00;;;;;;;18.88;3.42;;;8.20;99.90;;;;;;5042276;28;20495;-60
2021/10/22 02:37:26;;;;;;;12.57;2.17;;;8.20;99.90;;;;;;5043264;28;20021;-60
2021/10/22 02:39:52;;;;;;;24.73;3.85;;;8.10;99.90;;;;;;5041583;28;20055;-60
2021/10/22 02:42:17;;;;;;;12.98;2.00;;;8.10;99.90;;;;;;5042227;28;20341;-60
2021/10/22 02:44:43;;;;;;;14.60;3.28;;;8.00;99.90;;;;;;5040543;28;20034;-60
2021/10/22 02:47:09;;;;;;;16.27;3.05;;;8.10;99.90;;;;;;5024126;28;20071;-60
2021/10/22 02:49:36;;;;;;;15.55;2.97;;;8.10;99.90;;;;;;5042606;28;20407;-61
2021/10/22 02:52:02;;;;;;;15.68;3.03;;;8.10;99.90;;;;;;5019709;28;20270;-60
2021/10/22 02:54:27;;;;;;;20.05;2.05;;;8.20;99.90;;;;;;5041299;28;20357;-60
2021/10/22 02:56:53;;;;;;;22.15;3.40;;;8.30;99.90;;;;;;5039546;28;20052;-60
2021/10/22 02:59:19;;;;;;;9.23;1.90;;;8.30;99.90;;;;;;5039675;28;20041;-60
2021/10/22 03:01:45;;;;;;;13.50;2.35;;;8.40;99.90;;;;;;5041715;28;20329;-60
2021/10/22 03:04:11;;;;;;;13.52;1.40;;;8.30;99.90;;;;;;5038499;28;20040;-60
2021/10/22 03:06:37;;;;;;;11.07;1.65;;;8.20;99.90;;;;;;5038272;28;20040;-60
2021/10/22 03:09:03;;;;;;;18.00;2.30;;;8.20;99.90;;;;;;5042084;28;20041;-60
2021/10/22 03:11:29;;;;;;;18.52;2.47;;;8.20;99.90;;;;;;5042157;28;20083;-60
2021/10/22 03:13:55;;;;;;;11.38;2.38;;;8.10;99.90;;;;;;5040985;28;20043;-60
2021/10/22 03:16:21;;;;;;;13.05;1.85;;;8.20;99.90;;;;;;5041700;28;20057;-60
2021/10/22 03:18:48;;;;;;;10.48;1.95;;;8.20;99.90;;;;;;5041413;28;20056;-61
2021/10/22 03:21:15;;;;;;;10.27;2.10;;;8.20;99.90;;;;;;5042052;28;20668;-60
2021/10/22 03:23:40;;;;;;;17.20;2.90;;;8.20;99.90;;;;;;5039876;28;20033;-60
2021/10/22 03:26:06;;;;;;;9.75;1.33;;;8.20;99.90;;;;;;5042885;28;20107;-60
2021/10/22 03:28:32;;;;;;;12.88;1.85;;;8.20;99.90;;;;;;5040890;28;20045;-60
2021/10/22 03:30:58;;;;;;;10.77;1.25;;;8.10;99.90;;;;;;5038833;28;20486;-60
2021/10/22 03:33:24;;;;;;;11.48;1.70;;;8.10;99.90;;;;;;5040187;28;20040;-60
2021/10/22 03:35:49;;;;;;;12.55;1.58;;;8.00;99.90;;;;;;5041593;28;20247;-60
2021/10/22 03:38:15;;;;;;;10.70;1.88;;;8.10;99.90;;;;;;5041105;28;20405;-60
2021/10/22 03:40:41;;;;;;;11.68;1.63;;;8.10;99.90;;;;;;5039427;28;20028;-60
2021/10/22 03:43:07;;;;;;;10.23;2.08;;;8.10;99.90;;;;;;5042319;28;20033;-60
2021/10/22 03:45:33;;;;;;;10.32;1.52;;;8.10;99.90;;;;;;5038129;28;20033;-60
2021/10/22 03:47:59;;;;;;;11.90;1.40;;;8.10;99.90;;;;;;5042113;28;20041;-60
2021/10/22 03:50:25;;;;;;;23.92;2.92;;;8.10;99.90;;;;;;5034131;28;20026;-60
2021/10/22 03:52:52;;;;;;;13.77;1.92;;;8.10;99.90;;;;;;5020191;28;20076;-60
2021/10/22 03:55:18;;;;;;;16.00;1.85;;;8.20;99.90;;;;;;5019886;28;20348;-60
2021/10/22 03:57:44;;;;;;;14.38;1.55;;;8.20;99.90;;;;;;5021192;28;20044;-60
2021/10/22 04:00:11;;;;;;;14.45;2.67;;;8.20;99.90;;;;;;5020625;28;20219;-60
2021/10/22 04:02:36;;;;;;;14.40;2.53;;;8.30;99.90;;;;;;5019591;28;20205;-60
2021/10/22 04:05:06;;;;;;;20.50;2.40;;;8.30;99.90;;;;;;5014509;28;20037;-60
2021/10/22 04:07:32;;;;;;;15.35;2.90;;;8.30;99.90;;;;;;5012437;28;20331;-60
2021/10/22 04:09:58;;;;;;;20.83;2.97;;;8.20;99.90;;;;;;5011768;28;20397;-60
2021/10/22 04:12:24;;;;;;;19.10;3.15;;;8.10;99.90;;;;;;5019742;28;20053;-60
2021/10/22 04:14:49;;;;;;;22.52;3.72;;;8.10;99.90;;;;;;5019419;28;20038;-60
2021/10/22 04:17:15;;;;;;;20.88;2.95;;;8.10;99.90;;;;;;5016024;28;20433;-60
2021/10/22 04:19:44;;;;;;;28.55;3.70;;;8.10;99.90;;;;;;5020119;28;20100;-60
2021/10/22 04:22:11;;;;;;;13.68;2.33;;;8.10;99.90;;;;;;5017748;28;20196;-60
2021/10/22 04:24:37;;;;;;;12.63;2.38;;;8.10;99.90;;;;;;5017919;28;20276;-60
2021/10/22 04:27:03;;;;;;;7.82;1.48;;;8.10;99.90;;;;;;5020777;28;20021;-60
2021/10/22 04:29:29;;;;;;;13.93;2.60;;;8.10;99.90;;;;;;5023125;28;20041;-60
2021/10/22 04:31:55;;;;;;;6.45;1.73;;;8.20;99.90;;;;;;5017778;28;20216;-60
2021/10/22 04:34:23;;;;;;;14.20;2.22;;;8.20;99.90;;;;;;5020188;28;20028;-60
2021/10/22 04:36:49;;;;;;;12.40;1.67;;;8.30;99.90;;;;;;5022385;28;20033;-60
2021/10/22 04:41:59;;;;;;;11.30;2.10;;;8.30;99.90;;;;;;5022849;28;20025;-60
2021/10/22 04:44:26;;;;;;;16.20;1.95;;;8.40;99.90;;;;;;5024715;28;20112;-60
2021/10/22 04:46:53;;;;;;;13.77;2.10;;;8.40;99.90;;;;;;5024520;28;20053;-60
2021/10/22 04:49:19;;;;;;;18.25;2.03;;;8.50;99.90;;;;;;5023318;28;20060;-60
2021/10/22 04:51:45;;;;;;;15.82;2.78;;;8.50;99.90;;;;;;5027925;28;20197;-60
2021/10/22 04:54:10;;;;;;;7.90;1.05;;;8.40;99.90;;;;;;5026283;28;20212;-60
2021/10/22 04:56:36;;;;;;;11.43;1.50;;;8.40;99.90;;;;;;5042241;28;20325;-60
2021/10/22 04:59:02;;;;;;;13.85;2.42;;;8.30;99.90;;;;;;5009459;28;20025;-60
2021/10/22 05:01:28;;;;;;;9.10;2.08;;;8.40;99.90;;;;;;5043661;28;20496;-60
2021/10/22 05:03:54;;;;;;;16.50;2.17;;;8.30;99.90;;;;;;5025518;28;20115;-60
2021/10/22 05:06:20;;;;;;;10.23;1.60;;;8.30;99.90;;;;;;5043576;28;20017;-60
2021/10/22 05:08:46;;;;;;;5.85;0.80;;;8.20;99.90;;;;;;5043848;28;20321;-60
2021/10/22 05:11:11;;;;;;;10.85;1.20;;;8.20;99.90;;;;;;5042392;28;20036;-60
2021/10/22 05:13:37;;;;;;;7.60;0.75;;;8.20;99.90;;;;;;5042691;28;20257;-60
2021/10/22 05:16:03;;;;;;;7.85;1.23;;;8.10;99.90;;;;;;5042764;28;20029;-60
2021/10/22 05:18:31;;;;;;;7.82;1.10;;;8.10;99.90;;;;;;5041298;28;20067;-60
2021/10/22 05:20:57;;;;;;;6.85;0.90;;;8.10;99.90;;;;;;5041141;28;20024;-60
2021/10/22 05:23:24;;;;;;;16.48;1.88;;;8.10;99.90;;;;;;5042494;28;20037;-60
2021/10/22 05:25:50;;;;;;;15.15;1.42;;;8.10;99.90;;;;;;5027506;28;20027;-60
2021/10/22 05:28:16;;;;;;;14.90;2.67;;;8.10;99.90;;;;;;5044304;28;20037;-60
2021/10/22 05:30:42;;;;;;;10.05;1.90;;;8.20;99.90;;;;;;5045114;28;20267;-60
2021/10/22 05:33:11;;;;;;;16.98;4.07;;;8.20;99.90;;;;;;5043624;28;20036;-60
2021/10/22 05:35:36;;;;;;;10.65;2.97;;;8.20;99.90;;;;;;5042354;28;20257;-60
2021/10/22 05:38:04;;;;;;;9.88;2.05;;;8.20;99.90;;;;;;5043173;28;20025;-60
2021/10/22 05:40:30;;;;;;;18.42;3.08;;;8.30;99.90;;;;;;5044081;28;20020;-60
2021/10/22 05:42:55;;;;;;;11.95;2.75;;;8.20;99.90;;;;;;5041221;28;20256;-60
2021/10/22 05:45:21;;;;;;;14.18;2.83;;;8.30;99.90;;;;;;5044244;28;20028;-61
2021/10/22 05:47:47;;;;;;;10.60;2.20;;;8.30;99.90;;;;;;5044146;28;20025;-60
2021/10/22 05:50:13;;;;;;;17.60;3.13;;;8.30;99.90;;;;;;5042769;28;20052;-60
2021/10/22 05:52:39;;;;;;;14.13;2.67;;;8.40;99.90;;;;;;5043569;28;20351;-60
2021/10/22 05:55:05;;;;;;;9.73;1.98;;;8.40;99.90;;;;;;5043433;28;20052;-60
2021/10/22 05:57:31;;;;;;;12.43;2.05;;;8.40;99.90;;;;;;5043530;28;20021;-60
2021/10/22 05:59:57;;;;;;;5.30;1.05;;;8.40;99.90;;;;;;5044864;28;20047;-61
2021/10/22 06:02:23;;;;;;;6.82;0.80;;;8.40;99.90;;;;;;5043551;28;20423;-60
2021/10/22 06:04:49;;;;;;;2.38;0.45;;;8.40;99.90;;;;;;5044174;28;20017;-60
2021/10/22 06:07:15;;;;;;;5.47;0.98;;;8.30;99.90;;;;;;5044124;28;20028;-60
2021/10/22 06:09:40;;;;;;;4.80;0.82;;;8.10;99.90;;;;;;5026035;28;20052;-60
2021/10/22 06:12:06;;;;;;;5.97;0.73;;;8.10;99.90;;;;;;5042243;28;20022;-60
2021/10/22 06:14:33;;;;;;;2.60;0.55;;;8.10;99.90;;;;;;5025086;28;20049;-60
2021/10/22 06:17:01;;;;;;;5.47;1.13;;;8.00;99.90;;;;;;5042818;28;20022;-60
2021/10/22 06:19:29;;;;;;;5.95;1.00;;;7.90;99.90;;;;;;5041046;28;20020;-60
2021/10/22 06:22:09;;;;;;;5.97;0.90;;;8.00;99.90;;;;;;5040231;28;20021;-60
2021/10/22 06:24:35;;;;;;;4.10;0.88;;;8.10;99.90;;;;;;5042634;28;20052;-60
2021/10/22 06:27:01;;;;;;;9.70;2.80;;;8.00;99.90;;;;;;5041767;28;20089;-60
2021/10/22 06:29:27;;;;;;;3.00;1.13;;;8.00;99.90;;;;;;5023443;28;20434;-61
2021/10/22 06:31:53;;;;;;;4.05;1.20;;;8.00;99.90;;;;;;5042190;28;20242;-60
2021/10/22 06:34:21;;;;;;;4.30;1.52;;;8.00;99.90;;;;;;5042678;28;20045;-61
2021/10/22 06:36:47;;;;;;;6.43;1.00;;;8.00;99.90;;;;;;5041446;28;20026;-61
2021/10/22 06:39:13;;;;;;;9.40;1.48;;;8.00;99.90;;;;;;5040550;28;20040;-61
2021/10/22 06:41:39;;;;;;;3.63;0.95;;;8.10;99.90;;;;;;5042603;28;20027;-61
2021/10/22 06:44:05;;;;;;;4.68;1.33;;;8.10;99.90;;;;;;5038045;28;20284;-61
2021/10/22 06:46:31;;;;;;;5.95;1.48;;;8.00;99.90;;;;;;5041939;28;20360;-61
2021/10/22 06:48:57;;;;;;;5.95;1.60;;;8.10;99.90;;;;;;5041908;28;20158;-61
2021/10/22 06:51:23;;;;;;;6.28;1.10;;;8.00;99.90;;;;;;5041551;28;20044;-61
2021/10/22 06:53:49;;;;;;;4.55;1.00;;;8.00;99.90;;;;;;5042259;28;20033;-60
2021/10/22 06:56:15;;;;;;;4.68;0.73;;;8.10;99.90;;;;;;5042141;28;20048;-60
2021/10/22 06:58:40;;;;;;;8.00;1.00;;;8.10;99.90;;;;;;5042334;28;20404;-61
2021/10/22 07:01:06;;;;;;;13.40;1.67;;;8.10;99.90;;;;;;5041117;28;20039;-61
2021/10/22 07:03:39;;;;;;;10.10;1.20;;;8.00;99.90;;;;;;5041194;28;20047;-60
2021/10/22 07:08:52;;;;;;;10.30;1.88;;;8.00;99.90;;;;;;5041623;28;20055;-60
2021/10/22 07:11:19;;;;;;;5.03;1.15;;;8.00;99.90;;;;;;5041050;28;20021;-60
2021/10/22 07:13:51;;;;;;;4.78;0.95;;;8.00;99.90;;;;;;5040292;28;20032;-61
2021/10/22 07:16:17;;;;;;;4.32;1.23;;;7.90;99.90;;;;;;5041194;28;20021;-61
2021/10/22 07:18:44;;;;;;;7.53;1.13;;;7.80;99.90;;;;;;5041494;28;20192;-60
2021/10/22 07:21:11;;;;;;;4.18;1.20;;;7.80;99.90;;;;;;5040672;28;20036;-60
2021/10/22 07:23:36;;;;;;;4.45;1.30;;;7.80;99.90;;;;;;5040951;28;20610;-61
2021/10/22 07:26:02;;;;;;;13.00;3.75;;;8.00;99.90;;;;;;5041507;28;20055;-61
2021/10/22 07:28:28;;;;;;;9.60;5.85;;;8.00;99.90;;;;;;5041701;28;20323;-60
2021/10/22 07:30:54;;;;;;;11.27;4.90;;;7.80;99.90;;;;;;5040656;28;20300;-61
2021/10/22 07:33:21;;;;;;;9.88;3.67;;;7.90;99.90;;;;;;5040702;28;20275;-61
2021/10/22 07:35:47;;;;;;;7.88;3.65;;;8.00;99.90;;;;;;5041531;28;20309;-61
2021/10/22 07:38:13;;;;;;;6.07;1.83;;;8.00;99.90;;;;;;5041729;28;20033;-60
2021/10/22 07:40:45;;;;;;;10.45;1.67;;;8.00;99.90;;;;;;5040259;28;20251;-60
2021/10/22 07:43:11;;;;;;;9.73;1.80;;;8.10;99.90;;;;;;5040650;28;20060;-60
2021/10/22 07:45:37;;;;;;;8.70;2.30;;;8.00;99.90;;;;;;5039180;28;20032;-61
2021/10/22 07:48:03;;;;;;;5.00;1.40;;;8.00;99.90;;;;;;5040809;28;20041;-60
2021/10/22 07:50:29;;;;;;;10.15;1.70;;;8.10;99.90;;;;;;5040579;28;20036;-60
2021/10/22 07:52:55;;;;;;;12.35;2.15;;;8.60;99.90;;;;;;5038246;28;20135;-60
2021/10/22 07:55:22;;;;;;;13.60;1.80;;;9.20;99.90;;;;;;5039980;28;20604;-60
2021/10/22 07:57:48;;;;;;;8.38;1.27;;;9.30;99.90;;;;;;5041519;28;20053;-60
2021/10/22 08:00:14;;;;;;;8.40;1.83;;;9.30;99.90;;;;;;5037942;28;20327;-61
2021/10/22 08:02:41;;;;;;;11.40;1.60;;;9.20;99.90;;;;;;5039492;28;20036;-60
2021/10/22 08:05:08;;;;;;;9.98;1.50;;;9.10;99.90;;;;;;5041805;28;20093;-60
2021/10/22 08:07:37;;;;;;;9.65;1.58;;;8.90;99.90;;;;;;5038816;28;20040;-60
2021/10/22 08:10:04;;;;;;;8.88;1.75;;;8.80;99.90;;;;;;5037788;28;20244;-60
2021/10/22 08:12:31;;;;;;;13.15;2.35;;;8.70;99.90;;;;;;5040825;28;20025;-60
2021/10/22 08:14:56;;;;;;;6.97;1.60;;;8.40;99.90;;;;;;5040774;28;20028;-60
2021/10/22 08:17:22;;;;;;;11.30;1.80;;;8.30;99.90;;;;;;5040038;28;20087;-60
2021/10/22 08:22:42;;;;;;;11.23;1.80;;;8.10;99.90;;;;;;5036546;28;20075;-60
2021/10/22 08:25:13;;;;;;;8.25;1.27;;;8.10;99.90;;;;;;5040577;28;20677;-60
2021/10/22 08:27:44;;;;;;;8.60;1.23;;;8.10;99.90;;;;;;5040738;28;20021;-60
2021/10/22 08:30:15;;;;;;;8.50;1.17;;;8.10;99.90;;;;;;5041120;28;20386;-60
2021/10/22 08:32:41;;;;;;;17.40;3.05;;;8.20;99.90;;;;;;5041249;28;20040;-60
2021/10/22 08:35:08;;;;;;;7.80;1.48;;;8.20;99.90;;;;;;5039495;28;20033;-60
2021/10/22 08:37:38;;;;;;;6.28;1.60;;;8.20;99.90;;;;;;5040688;28;20235;-60
2021/10/22 08:40:05;;;;;;;;;;;8.30;99.90;;;;;;5040808;28;20189;-60
2021/10/22 08:42:31;;;;;;;12.45;2.15;;;8.30;99.90;;;;;;5041218;28;19921;-60
2021/10/22 08:44:57;;;;;;;4.47;1.35;;;8.30;99.90;;;;;;5040317;28;20099;-60
2021/10/22 08:47:27;;;;;;;8.18;1.55;;;8.30;99.90;;;;;;5040462;28;20032;-60
2021/10/22 08:50:00;;;;;;;7.60;1.30;;;8.20;99.90;;;;;;5039964;28;20304;-60
2021/10/22 08:52:28;;;;;;;12.82;1.95;;;8.20;99.90;;;;;;5039172;28;20049;-60
2021/10/22 08:54:56;;;;;;;8.40;1.77;;;8.10;99.90;;;;;;5040544;28;20032;-60
2021/10/22 08:57:22;;;;;;;10.23;1.92;;;8.10;99.90;;;;;;5039739;28;20033;-60
2021/10/22 08:59:47;;;;;;;10.60;1.70;;;8.10;99.90;;;;;;5039250;28;20032;-60
2021/10/22 09:02:22;;;;;;;14.05;1.67;;;8.20;99.90;;;;;;5022420;28;20047;-60
2021/10/22 09:04:49;;;;;;;8.65;1.50;;;8.20;99.90;;;;;;5022628;28;20100;-60
2021/10/22 09:07:20;;;;;;;14.23;2.40;;;8.30;99.90;;;;;;5041604;28;20025;-60
2021/10/22 09:10:02;;;;;;;7.72;1.92;;;8.30;99.90;;;;;;5041358;28;20037;-60
2021/10/22 09:12:49;;;;;;;12.40;1.70;;;8.40;99.90;;;;;;5042569;28;20093;-60
2021/10/22 09:15:19;;;;;;;6.15;1.67;;;8.40;99.90;;;;;;5044665;28;20366;-60
2021/10/22 09:17:46;;;;;;;;;;;8.40;99.90;;;;;;5045069;28;20024;-60
2021/10/22 09:20:13;;;;;;;9.18;3.30;;;8.50;99.90;;;;;;5043253;28;19913;-60
2021/10/22 09:23:00;;;;;;;6.25;2.10;;;8.40;99.90;;;;;;5042733;28;20044;-60
2021/10/22 09:25:29;;;;;;;5.97;2.35;;;8.40;99.90;;;;;;5043924;28;20033;-60
2021/10/22 09:27:57;;;;;;;9.13;1.88;;;8.40;99.90;;;;;;5042751;28;20317;-60
2021/10/22 09:30:23;;;;;;;7.22;1.30;;;8.50;99.90;;;;;;5043679;28;20021;-60
2021/10/22 09:32:50;;;;;;;4.82;1.27;;;8.60;99.90;;;;;;5043537;28;20316;-60
2021/10/22 09:35:32;;;;;;;3.85;1.25;;;8.60;99.90;;;;;;5044211;28;20675;-60
2021/10/22 09:38:14;;;;;;;8.45;1.50;;;8.70;99.90;;;;;;5041819;28;20239;-60
2021/10/22 09:40:43;;;;;;;7.20;1.08;;;8.80;99.90;;;;;;5043414;28;20354;-60
2021/10/22 09:43:15;;;;;;;2.28;1.02;;;8.80;99.90;;;;;;5043811;28;20037;-61
2021/10/22 09:45:41;;;;;;;7.45;1.52;;;8.90;99.90;;;;;;5044480;28;20331;-60
2021/10/22 09:48:29;;;;;;;14.35;1.77;;;8.90;99.90;;;;;;5044257;28;20462;-60
2021/10/22 09:50:58;;;;;;;6.47;0.90;;;9.00;99.90;;;;;;5041957;28;20059;-60
2021/10/22 09:53:36;;;;;;;2.38;0.63;;;9.00;99.90;;;;;;5004760;28;20079;-60
2021/10/22 09:56:06;;;;;;;10.38;1.08;;;8.90;99.90;;;;;;5024069;28;20104;-60
2021/10/22 09:58:32;;;;;;;2.42;0.70;;;8.90;99.90;;;;;;5024428;28;20252;-60
2021/10/22 10:01:07;;;;;;;10.85;0.60;;;8.80;99.90;;;;;;5024083;28;20256;-60
2021/10/22 10:03:36;;;;;;;6.38;0.90;;;8.90;99.90;;;;;;5024550;28;20076;-60
2021/10/22 10:06:04;;;;;;;;;;;8.90;99.90;;;;;;5021973;28;20255;-60
2021/10/22 10:08:31;;;;;;;5.85;0.80;;;9.00;99.90;;;;;;5023969;28;19940;-60
2021/10/22 10:10:57;;;;;;;13.52;1.75;;;9.60;99.90;;;;;;5024045;28;20017;-60
2021/10/22 10:13:23;;;;;;;5.22;1.00;;;10.10;99.90;;;;;;5024075;28;20048;-60
2021/10/22 10:15:49;;;;;;;4.72;0.88;;;9.70;99.90;;;;;;5021584;28;20029;-60
2021/10/22 10:18:18;;;;;;;7.35;2.70;;;9.20;99.90;;;;;;5022910;28;20097;-60
2021/10/22 10:20:48;;;;;;;9.23;1.70;;;8.90;99.90;;;;;;5017150;28;20029;-60
2021/10/22 10:23:16;;;;;;;6.53;1.33;;;9.70;99.90;;;;;;5022024;28;20033;-61
2021/10/22 10:25:44;;;;;;;14.38;5.20;;;10.70;99.90;;;;;;5018339;28;20021;-61
2021/10/22 10:28:09;;;;;;;5.38;1.00;;;11.70;99.90;;;;;;5019708;28;20298;-61
2021/10/22 10:30:41;;;;;;;3.38;1.02;;;12.30;99.90;;;;;;5022383;28;20014;-61
2021/10/22 10:33:28;;;;;;;4.07;1.35;;;12.70;99.90;;;;;;5022108;28;20103;-61
2021/10/22 10:35:54;;;;;;;9.15;2.55;;;13.50;99.90;;;;;;5022618;28;20052;-61
2021/10/22 10:38:44;;;;;;;8.82;2.28;;;13.60;99.90;;;;;;5021677;28;20316;-60
2021/10/22 10:41:20;;;;;;;8.23;2.65;;;13.10;99.90;;;;;;5022106;28;20294;-61
2021/10/22 10:43:46;;;;;;;4.50;1.10;;;12.40;99.90;;;;;;5022500;28;20036;-60
2021/10/22 10:46:32;;;;;;;8.85;2.75;;;11.90;99.90;;;;;;5021721;28;20037;-60
2021/10/22 10:48:58;;;;;;;8.13;3.08;;;11.40;99.90;;;;;;5022273;28;20104;-60
2021/10/22 10:51:38;;;;;;;6.60;1.50;;;11.00;99.90;;;;;;5024201;28;20052;-61
2021/10/22 10:54:04;;;;;;;9.70;2.72;;;10.70;99.90;;;;;;5025186;28;20407;-60
2021/10/22 10:56:35;;;;;;;12.35;3.58;;;10.60;99.90;;;;;;5042095;28;20032;-61
2021/10/22 10:59:02;;;;;;;12.07;2.45;;;10.60;99.90;;;;;;5040523;28;20106;-61
2021/10/22 11:01:36;;;;;;;10.85;3.13;;;11.40;99.90;;;;;;5041510;28;20212;-60
2021/10/22 11:04:04;;;;;;;10.75;2.20;;;11.60;99.90;;;;;;5009443;28;20091;-61
2021/10/22 11:06:41;;;;;;;18.80;3.40;;;10.80;99.90;;;;;;5041495;28;20257;-60
2021/10/22 11:09:07;;;;;;;13.43;3.38;;;10.00;99.90;;;;;;5021651;28;20032;-60
2021/10/22 11:11:38;;;;;;;9.18;2.35;;;9.60;99.90;;;;;;5037075;28;20025;-61
2021/10/22 11:14:05;;;;;;;15.07;4.05;;;9.40;99.90;;;;;;5041746;28;20204;-62
2021/10/22 11:16:44;;;;;;;14.20;4.15;;;10.10;99.90;;;;;;5042753;28;20043;-60
2021/10/22 11:19:09;;;;;;;15.25;3.20;;;10.80;99.90;;;;;;5007456;28;20088;-60
2021/10/22 11:21:42;;;;;;;15.05;3.45;;;10.70;99.90;;;;;;5042478;28;20026;-61
2021/10/22 11:24:17;;;;;;;10.68;2.70;;;10.40;99.90;;;;;;5042702;28;20414;-61
2021/10/22 11:26:45;;;;;;;14.25;3.35;;;10.10;99.90;;;;;;5043042;28;20339;-61
2021/10/22 11:29:19;;;;;;;14.13;2.80;;;10.20;99.90;;;;;;5041223;28;20371;-61
2021/10/22 11:31:48;;;;;;;10.18;2.72;;;11.20;99.90;;;;;;5039790;28;20204;-61
2021/10/22 11:34:21;;;;;;;10.68;2.40;;;12.40;99.90;;;;;;5041886;28;20300;-61
2021/10/22 11:36:59;;;;;;;11.57;2.13;;;13.50;99.90;;;;;;5041255;28;20116;-60
2021/10/22 11:39:49;;;;;;;13.23;3.28;;;14.30;99.90;;;;;;5042506;28;20236;-60
2021/10/22 11:42:29;;;;;;;13.32;2.88;;;14.30;99.90;;;;;;5042413;28;20033;-60
2021/10/22 11:45:07;;;;;;;12.25;3.00;;;13.80;99.90;;;;;;5041931;28;20376;-61
2021/10/22 11:47:45;;;;;;;14.43;4.15;;;12.80;99.90;;;;;;5041534;28;20055;-60
2021/10/22 11:50:30;;;;;;;13.25;3.88;;;12.40;99.90;;;;;;5041676;28;20052;-60
2021/10/22 11:53:13;;;;;;;11.70;3.60;;;13.10;99.90;;;;;;5040016;28;20337;-61
2021/10/22 11:55:51;;;;;;;14.32;3.30;;;13.90;99.90;;;;;;5041785;28;20370;-60
2021/10/22 11:58:21;;;;;;;15.20;3.33;;;14.10;99.90;;;;;;5041947;28;20228;-60
2021/10/22 12:00:57;;;;;;;10.48;2.97;;;13.70;99.90;;;;;;5041796;28;20327;-60
2021/10/22 12:03:37;;;;;;;15.95;4.07;;;13.60;99.90;;;;;;5041939;28;20021;-61
2021/10/22 12:06:04;;;;;;;;;;;13.70;99.90;;;;;;5041906;28;20025;-60
2021/10/22 12:08:33;;;;;;;11.68;2.42;;;13.90;99.90;;;;;;5041483;28;20147;-61
2021/10/22 12:11:03;;;;;;;12.57;2.38;;;14.10;99.90;;;;;;5040208;28;20112;-61
2021/10/22 12:13:33;;;;;;;12.80;2.85;;;14.60;99.90;;;;;;5039630;28;20033;-61
2021/10/22 12:16:10;;;;;;;;;;;14.60;99.90;;;;;;5040764;28;20083;-61
2021/10/22 12:18:38;;;;;;;12.45;2.88;;;14.50;99.90;;;;;;5040525;28;19955;-61
2021/10/22 12:21:08;;;;;;;11.05;3.03;;;14.60;99.90;;;;;;5041547;28;20017;-60
2021/10/22 12:23:37;;;;;;;8.32;2.17;;;14.40;99.90;;;;;;5041463;28;20324;-61
2021/10/22 12:26:03;;;;;;;9.45;2.63;;;13.40;99.90;;;;;;5041690;28;20090;-60
2021/10/22 12:28:29;;;;;;;10.40;3.20;;;13.20;99.90;;;;;;5042021;28;20057;-60
2021/10/22 12:31:11;;;;;;;11.07;3.67;;;13.20;99.90;;;;;;5036934;28;20286;-61
2021/10/22 12:33:36;;;;;;;10.20;3.47;;;13.30;99.90;;;;;;5041131;28;20093;-61
2021/10/22 12:36:15;;;;;;;8.48;2.40;;;13.70;99.90;;;;;;5040489;28;20057;-61
2021/10/22 12:38:41;;;;;;;7.55;1.52;;;14.20;99.90;;;;;;5041638;28;20022;-61
2021/10/22 12:41:11;;;;;;;8.73;2.45;;;14.40;99.90;;;;;;5037660;28;20039;-61
2021/10/22 12:43:37;;;;;;;6.88;2.03;;;14.50;99.90;;;;;;5040575;28;20025;-60
2021/10/22 12:46:13;;;;;;;7.82;1.83;;;14.60;99.90;;;;;;5039132;28;20033;-60
2021/10/22 12:48:47;;;;;;;9.43;1.90;;;13.90;99.90;;;;;;5042784;28;20391;-60
2021/10/22 12:51:22;;;;;;;10.70;1.75;;;12.90;99.90;;;;;;5041779;28;20029;-60
2021/10/22 12:53:50;;;;;;;8.00;2.47;;;12.10;99.90;;;;;;5044267;28;20033;-60
2021/10/22 12:56:25;;;;;;;7.90;1.90;;;11.90;99.90;;;;;;5043201;28;20072;-61
2021/10/22 12:58:59;;;;;;;8.05;2.10;;;12.60;99.90;;;;;;5044335;28;20363;-61
2021/10/22 13:01:33;;;;;;;3.88;1.25;;;13.20;99.90;;;;;;5025044;28;20025;-61
2021/10/22 13:04:02;;;;;;;7.07;1.35;;;13.50;99.90;;;;;;5043622;28;20106;-60